Time;durP1;ratioP1;P1;durP2;ratioP2;P2;SDS_P1;SDS_P2;PMS_P1;PMS_P2;Temp;Humidity;BMP_temperature;BMP_pressure;BME280_temperature;BME280_humidity;BME280_pressure;Samples;Min_cycle;Max_cycle;Signal;HPM_P1;HPM_P2
2021/06/29 00:02:12;;;;;;;13.38;8.38;;;;;;;;;;5075586;28;20463;-65
2021/06/29 00:04:38;;;;;;;14.60;7.82;;;;;;;;;;5075446;28;20484;-65
2021/06/29 00:07:04;;;;;;;14.52;8.60;;;;;;;;;;5069343;28;20480;-66
2021/06/29 00:09:31;;;;;;;16.75;8.95;;;;;;;;;;5074336;28;20147;-65
2021/06/29 00:11:57;;;;;;;15.88;9.18;;;;;;;;;;5075891;28;20111;-65
2021/06/29 00:14:24;;;;;;;14.88;8.15;;;;;;;;;;5072295;28;20048;-65
2021/06/29 00:16:50;;;;;;;17.85;8.23;;;;;;;;;;5077801;28;20092;-65
2021/06/29 00:19:18;;;;;;;16.80;8.18;;;;;;;;;;5070656;28;20041;-65
2021/06/29 00:21:44;;;;;;;18.35;9.38;;;;;;;;;;5072763;28;20036;-65
2021/06/29 00:24:10;;;;;;;15.63;9.05;;;;;;;;;;5072681;28;20123;-65
2021/06/29 00:26:36;;;;;;;14.40;8.48;;;;;;;;;;5078079;28;20051;-65
2021/06/29 00:29:03;;;;;;;18.80;9.30;;;;;;;;;;5073263;28;20055;-66
2021/06/29 00:31:29;;;;;;;17.58;9.13;;;;;;;;;;5072591;28;20045;-65
2021/06/29 00:33:55;;;;;;;14.40;8.85;;;;;;;;;;5067781;28;20052;-65
2021/06/29 00:36:21;;;;;;;15.38;9.02;;;;;;;;;;5075072;28;20413;-65
2021/06/29 00:38:48;;;;;;;18.70;9.20;;;;;;;;;;5074576;28;20101;-65
2021/06/29 00:41:14;;;;;;;18.38;9.43;;;;;;;;;;5083583;28;20052;-65
2021/06/29 00:43:59;;;;;;;20.90;9.55;;;;;;;;;;5076293;28;20779;-65
2021/06/29 00:46:25;;;;;;;21.52;9.52;;;;;;;;;;5087125;28;20127;-66
2021/06/29 00:48:51;;;;;;;17.63;9.52;;;;;;;;;;5075882;28;20048;-65
2021/06/29 00:51:19;;;;;;;20.67;9.38;;;;;;;;;;5082949;28;20090;-65
2021/06/29 00:53:46;;;;;;;16.08;9.30;;;;;;;;;;5089203;28;20054;-65
2021/06/29 00:56:15;;;;;;;17.73;9.00;;;;;;;;;;5079079;28;20033;-65
2021/06/29 00:58:42;;;;;;;16.73;9.35;;;;;;;;;;5076072;28;20048;-65
2021/06/29 01:01:09;;;;;;;15.18;9.57;;;;;;;;;;5080835;28;20514;-65
2021/06/29 01:03:39;;;;;;;14.23;8.77;;;;;;;;;;5082037;28;20455;-65
2021/06/29 01:06:06;;;;;;;11.98;8.55;;;;;;;;;;5072890;28;20032;-65
2021/06/29 01:08:32;;;;;;;16.40;9.63;;;;;;;;;;5078637;28;20044;-65
2021/06/29 01:10:59;;;;;;;19.85;9.35;;;;;;;;;;5078820;28;20048;-65
2021/06/29 01:13:37;;;;;;;18.40;10.13;;;;;;;;;;5084049;28;20477;-65
2021/06/29 01:16:05;;;;;;;15.95;9.50;;;;;;;;;;5072781;28;20465;-66
2021/06/29 01:18:32;;;;;;;18.17;9.40;;;;;;;;;;5079122;28;20041;-65
2021/06/29 01:20:58;;;;;;;20.50;9.98;;;;;;;;;;5080527;28;20043;-65
2021/06/29 01:23:27;;;;;;;15.60;10.18;;;;;;;;;;5082135;28;20146;-65
2021/06/29 01:26:28;;;;;;;21.05;9.88;;;;;;;;;;5077255;28;20056;-65
2021/06/29 01:31:24;;;;;;;17.70;10.02;;;;;;;;;;5077210;28;20174;-65
2021/06/29 01:33:51;;;;;;;24.63;10.95;;;;;;;;;;5082657;28;20046;-65
2021/06/29 01:36:19;;;;;;;21.42;10.52;;;;;;;;;;5077642;28;20041;-65
2021/06/29 01:38:46;;;;;;;19.52;10.10;;;;;;;;;;5076517;28;20036;-65
2021/06/29 01:41:19;;;;;;;23.83;11.20;;;;;;;;;;5077038;28;20048;-65
2021/06/29 01:43:58;;;;;;;23.30;10.38;;;;;;;;;;5078608;28;20083;-65
2021/06/29 01:46:27;;;;;;;20.75;10.43;;;;;;;;;;5077057;28;20549;-65
2021/06/29 01:48:55;;;;;;;20.15;11.10;;;;;;;;;;5086408;28;20540;-65
2021/06/29 01:51:22;;;;;;;22.10;10.32;;;;;;;;;;5077305;28;20506;-65
2021/06/29 01:53:49;;;;;;;19.40;11.25;;;;;;;;;;5080645;28;20040;-65
2021/06/29 01:56:16;;;;;;;22.58;10.85;;;;;;;;;;5081382;28;20028;-65
2021/06/29 01:58:47;;;;;;;19.85;10.63;;;;;;;;;;5087939;28;20042;-65
2021/06/29 02:01:13;;;;;;;22.25;11.05;;;;;;;;;;5081907;28;20037;-65
2021/06/29 02:03:39;;;;;;;20.88;10.70;;;;;;;;;;5073350;28;20063;-65
2021/06/29 02:06:06;;;;;;;18.88;10.88;;;;;;;;;;5074631;28;20415;-65
2021/06/29 02:08:32;;;;;;;20.17;10.70;;;;;;;;;;5074736;28;20048;-65
2021/06/29 02:10:58;;;;;;;19.95;10.80;;;;;;;;;;5077123;28;20422;-65
2021/06/29 02:13:24;;;;;;;23.75;11.00;;;;;;;;;;5082719;28;20037;-66
2021/06/29 02:15:51;;;;;;;23.02;11.35;;;;;;;;;;5078715;28;20049;-65
2021/06/29 02:18:17;;;;;;;19.40;10.85;;;;;;;;;;5070006;28;20036;-65
2021/06/29 02:20:44;;;;;;;20.17;10.60;;;;;;;;;;5087267;28;20043;-65
2021/06/29 02:23:10;;;;;;;22.17;11.25;;;;;;;;;;5072872;28;20036;-65
2021/06/29 02:25:36;;;;;;;16.58;10.60;;;;;;;;;;5076003;28;20048;-65
2021/06/29 02:28:03;;;;;;;17.92;11.15;;;;;;;;;;5073255;28;20043;-65
2021/06/29 02:30:29;;;;;;;20.10;10.85;;;;;;;;;;5079265;28;20036;-65
2021/06/29 02:32:55;;;;;;;19.10;11.38;;;;;;;;;;5077160;28;20655;-66
2021/06/29 02:35:21;;;;;;;20.95;11.75;;;;;;;;;;5082967;28;20079;-65
2021/06/29 02:37:47;;;;;;;16.10;9.98;;;;;;;;;;5073812;28;20044;-66
2021/06/29 02:40:13;;;;;;;19.08;10.77;;;;;;;;;;5075573;28;20145;-65
2021/06/29 02:42:40;;;;;;;21.85;10.80;;;;;;;;;;5076485;28;20082;-65
2021/06/29 02:45:07;;;;;;;17.63;10.57;;;;;;;;;;5070600;28;20028;-65
2021/06/29 02:47:35;;;;;;;21.58;10.65;;;;;;;;;;5074127;28;20040;-65
2021/06/29 02:50:01;;;;;;;19.67;11.27;;;;;;;;;;5079971;28;20044;-65
2021/06/29 02:52:28;;;;;;;22.58;11.70;;;;;;;;;;5077663;28;20045;-65
2021/06/29 02:54:54;;;;;;;21.90;10.80;;;;;;;;;;5075569;28;20044;-65
2021/06/29 02:57:20;;;;;;;21.08;10.82;;;;;;;;;;5076372;28;20051;-65
2021/06/29 02:59:46;;;;;;;16.00;9.73;;;;;;;;;;5071167;28;20064;-65
2021/06/29 03:02:12;;;;;;;18.67;9.52;;;;;;;;;;5077128;28;20044;-65
2021/06/29 03:04:38;;;;;;;26.30;11.32;;;;;;;;;;5074393;28;20486;-65
2021/06/29 03:07:05;;;;;;;23.65;10.60;;;;;;;;;;5089329;28;20130;-65
2021/06/29 03:09:31;;;;;;;21.70;11.25;;;;;;;;;;5073807;28;20052;-65
2021/06/29 03:11:57;;;;;;;24.65;10.98;;;;;;;;;;5081609;28;20053;-65
2021/06/29 03:14:24;;;;;;;20.42;11.18;;;;;;;;;;5073411;28;20047;-65
2021/06/29 03:16:51;;;;;;;25.17;11.23;;;;;;;;;;5081500;28;20494;-65
2021/06/29 03:19:18;;;;;;;20.77;11.00;;;;;;;;;;5077832;28;20070;-65
2021/06/29 03:21:44;;;;;;;24.52;10.88;;;;;;;;;;5073293;28;20064;-66
2021/06/29 03:24:10;;;;;;;26.08;10.98;;;;;;;;;;5078514;28;20049;-65
2021/06/29 03:26:37;;;;;;;19.50;10.70;;;;;;;;;;5073291;28;20048;-65
2021/06/29 03:29:04;;;;;;;23.40;11.45;;;;;;;;;;5086585;28;20510;-65
2021/06/29 03:31:33;;;;;;;23.08;11.73;;;;;;;;;;5071419;28;20094;-65
2021/06/29 03:34:00;;;;;;;21.10;11.02;;;;;;;;;;5080811;28;20406;-65
2021/06/29 03:36:26;;;;;;;21.17;10.32;;;;;;;;;;5077226;28;20040;-66
2021/06/29 03:38:52;;;;;;;21.90;10.50;;;;;;;;;;5077020;28;20490;-66
2021/06/29 03:41:18;;;;;;;27.10;10.95;;;;;;;;;;5072766;28;20382;-65
2021/06/29 03:43:45;;;;;;;22.15;10.38;;;;;;;;;;5074927;28;20044;-65
2021/06/29 03:46:11;;;;;;;23.65;10.85;;;;;;;;;;5071586;28;20044;-66
2021/06/29 03:48:37;;;;;;;22.98;10.00;;;;;;;;;;5077786;28;20067;-65
2021/06/29 03:51:04;;;;;;;25.52;9.82;;;;;;;;;;5075879;28;20121;-65
2021/06/29 03:53:30;;;;;;;18.92;9.20;;;;;;;;;;5075495;28;20040;-65
2021/06/29 03:55:56;;;;;;;27.00;10.30;;;;;;;;;;5068095;28;20047;-65
2021/06/29 03:58:22;;;;;;;27.70;11.27;;;;;;;;;;5077906;28;20032;-65
2021/06/29 04:00:56;;;;;;;22.53;9.90;;;;;;;;;;5077460;28;20121;-65
2021/06/29 04:03:22;;;;;;;26.75;9.80;;;;;;;;;;5073337;28;20290;-65
2021/06/29 04:05:48;;;;;;;23.70;10.10;;;;;;;;;;5079807;28;20452;-65
2021/06/29 04:08:14;;;;;;;29.83;10.85;;;;;;;;;;5065542;28;20037;-65
2021/06/29 04:10:41;;;;;;;26.02;10.48;;;;;;;;;;5076945;28;20037;-65
2021/06/29 04:13:07;;;;;;;34.45;10.93;;;;;;;;;;5069679;28;20371;-65
2021/06/29 04:15:33;;;;;;;38.55;12.13;;;;;;;;;;5086469;28;20134;-65
2021/06/29 04:17:59;;;;;;;41.53;12.20;;;;;;;;;;5068007;28;20162;-65
2021/06/29 04:20:25;;;;;;;45.78;13.40;;;;;;;;;;5078132;28;20124;-65
2021/06/29 04:22:52;;;;;;;31.38;11.15;;;;;;;;;;5070698;28;20051;-65
2021/06/29 04:25:18;;;;;;;41.58;12.50;;;;;;;;;;5071388;28;20453;-65
2021/06/29 04:27:44;;;;;;;49.10;13.65;;;;;;;;;;5073972;28;20075;-65
2021/06/29 04:30:29;;;;;;;78.43;51.38;;;;;;;;;;5082813;28;20051;-65
2021/06/29 04:32:55;;;;;;;58.95;17.65;;;;;;;;;;5067237;28;20419;-65
2021/06/29 04:35:22;;;;;;;62.15;17.15;;;;;;;;;;5071372;28;20048;-65
2021/06/29 04:37:49;;;;;;;48.97;14.20;;;;;;;;;;5068016;28;20044;-65
2021/06/29 04:40:15;;;;;;;59.42;15.30;;;;;;;;;;5076488;28;20478;-66
2021/06/29 04:42:42;;;;;;;51.55;14.13;;;;;;;;;;5081589;28;20048;-65
2021/06/29 04:45:09;;;;;;;54.05;14.18;;;;;;;;;;5074408;28;20055;-65
2021/06/29 04:47:44;;;;;;;56.40;16.08;;;;;;;;;;5076776;28;20039;-65
2021/06/29 04:50:10;;;;;;;;;;;;;;;;;;5077974;28;20112;-66
2021/06/29 04:52:36;;;;;;;76.40;15.50;;;;;;;;;;5085517;28;19920;-65
2021/06/29 04:55:02;;;;;;;70.55;17.13;;;;;;;;;;5065802;28;20376;-65
2021/06/29 04:57:28;;;;;;;71.53;16.42;;;;;;;;;;5074396;28;20056;-65
2021/06/29 04:59:54;;;;;;;60.03;15.55;;;;;;;;;;5072852;28;20093;-65
2021/06/29 05:02:21;;;;;;;55.75;15.55;;;;;;;;;;5069596;28;20053;-66
2021/06/29 05:04:47;;;;;;;61.92;15.18;;;;;;;;;;5068693;28;20048;-65
2021/06/29 05:07:13;;;;;;;51.40;14.48;;;;;;;;;;5074071;28;20120;-65
2021/06/29 05:09:39;;;;;;;70.65;16.80;;;;;;;;;;5065672;28;20045;-65
2021/06/29 05:12:05;;;;;;;52.08;15.13;;;;;;;;;;5072883;28;20063;-65
2021/06/29 05:14:32;;;;;;;60.40;15.63;;;;;;;;;;5071836;28;20362;-65
2021/06/29 05:16:58;;;;;;;53.72;15.95;;;;;;;;;;5077418;28;20064;-65
2021/06/29 05:19:24;;;;;;;60.60;15.70;;;;;;;;;;5063704;28;20455;-65
2021/06/29 05:21:50;;;;;;;66.10;16.65;;;;;;;;;;5073749;28;20060;-65
2021/06/29 05:24:16;;;;;;;47.78;14.70;;;;;;;;;;5073996;28;20486;-65
2021/06/29 05:26:42;;;;;;;54.00;15.82;;;;;;;;;;5076474;28;20348;-65
2021/06/29 05:29:09;;;;;;;52.22;15.40;;;;;;;;;;5072999;28;20059;-65
2021/06/29 05:31:35;;;;;;;60.38;15.80;;;;;;;;;;5077999;28;20362;-64
2021/06/29 05:34:01;;;;;;;54.35;14.82;;;;;;;;;;5084761;28;20519;-64
2021/06/29 05:36:27;;;;;;;47.22;14.90;;;;;;;;;;5073179;28;20068;-64
2021/06/29 05:38:53;;;;;;;49.22;15.10;;;;;;;;;;5076198;28;20392;-64
2021/06/29 05:41:20;;;;;;;45.47;14.77;;;;;;;;;;5070441;28;20032;-64
2021/06/29 05:43:46;;;;;;;48.67;15.10;;;;;;;;;;5080701;28;20052;-64
2021/06/29 05:46:13;;;;;;;49.70;15.00;;;;;;;;;;5071256;28;20480;-64
2021/06/29 05:48:42;;;;;;;57.05;15.82;;;;;;;;;;5077142;28;20035;-64
2021/06/29 05:51:08;;;;;;;51.90;15.15;;;;;;;;;;5071129;28;20043;-64
2021/06/29 05:53:35;;;;;;;45.35;15.20;;;;;;;;;;5081677;28;20106;-64
2021/06/29 05:56:01;;;;;;;52.75;15.55;;;;;;;;;;5072731;28;20044;-64
2021/06/29 05:58:32;;;;;;;64.63;16.55;;;;;;;;;;5079274;28;20086;-64
2021/06/29 06:00:58;;;;;;;49.97;15.30;;;;;;;;;;5076365;28;20048;-64
2021/06/29 06:03:24;;;;;;;52.85;17.73;;;;;;;;;;5073608;28;20410;-64
2021/06/29 06:05:51;;;;;;;54.50;15.93;;;;;;;;;;5073159;28;20473;-64
2021/06/29 06:08:17;;;;;;;56.83;16.15;;;;;;;;;;5080362;28;20044;-64
2021/06/29 06:10:43;;;;;;;56.97;15.93;;;;;;;;;;5073407;28;20080;-64
2021/06/29 06:13:09;;;;;;;51.97;18.88;;;;;;;;;;5077597;28;20043;-64
2021/06/29 06:15:37;;;;;;;56.05;16.80;;;;;;;;;;5077871;28;20047;-64
2021/06/29 06:18:05;;;;;;;47.80;16.10;;;;;;;;;;5065756;28;20460;-64
2021/06/29 06:20:31;;;;;;;49.42;15.23;;;;;;;;;;5079704;28;20044;-64
2021/06/29 06:22:58;;;;;;;58.15;16.08;;;;;;;;;;5071105;28;20131;-64
2021/06/29 06:25:24;;;;;;;58.65;16.30;;;;;;;;;;5079198;28;20048;-64
2021/06/29 06:27:50;;;;;;;45.92;14.68;;;;;;;;;;5077768;28;20055;-64
2021/06/29 06:30:18;;;;;;;54.95;15.38;;;;;;;;;;5077353;28;20059;-64
2021/06/29 06:32:44;;;;;;;52.45;16.20;;;;;;;;;;5075939;28;20534;-64
2021/06/29 06:35:11;;;;;;;51.67;15.80;;;;;;;;;;5075783;28;20044;-64
2021/06/29 06:37:37;;;;;;;52.58;15.48;;;;;;;;;;5069009;28;20045;-62
2021/06/29 06:40:05;;;;;;;58.00;16.02;;;;;;;;;;5073878;28;20052;-62
2021/06/29 06:42:31;;;;;;;46.40;15.85;;;;;;;;;;5071873;28;20382;-65
2021/06/29 06:44:57;;;;;;;52.28;15.32;;;;;;;;;;5075673;28;20131;-65
2021/06/29 06:47:24;;;;;;;50.00;15.73;;;;;;;;;;5072214;28;20059;-65
2021/06/29 06:49:51;;;;;;;54.67;16.77;;;;;;;;;;5070041;28;20123;-65
2021/06/29 06:52:17;;;;;;;49.95;17.40;;;;;;;;;;5076595;28;20556;-65
2021/06/29 06:54:43;;;;;;;52.60;16.83;;;;;;;;;;5070678;28;20041;-65
2021/06/29 06:57:10;;;;;;;44.63;16.17;;;;;;;;;;5077641;28;20592;-65
2021/06/29 06:59:36;;;;;;;50.58;17.45;;;;;;;;;;5068921;28;20079;-64
2021/06/29 07:02:03;;;;;;;38.33;15.60;;;;;;;;;;5075289;28;20040;-64
2021/06/29 07:04:29;;;;;;;37.67;16.60;;;;;;;;;;5070939;28;20094;-65
2021/06/29 07:06:55;;;;;;;36.70;17.23;;;;;;;;;;5081356;28;20149;-65
2021/06/29 07:09:22;;;;;;;38.67;17.10;;;;;;;;;;5079080;28;20433;-64
2021/06/29 07:11:49;;;;;;;45.35;17.15;;;;;;;;;;5082961;28;20073;-65
2021/06/29 07:14:15;;;;;;;40.92;15.95;;;;;;;;;;5079237;28;20044;-65
2021/06/29 07:16:42;;;;;;;41.22;16.13;;;;;;;;;;5088456;28;20040;-65
2021/06/29 07:19:08;;;;;;;39.20;16.23;;;;;;;;;;5077771;28;20069;-65
2021/06/29 07:21:34;;;;;;;31.17;15.13;;;;;;;;;;5083267;28;20040;-65
2021/06/29 07:24:00;;;;;;;33.00;13.90;;;;;;;;;;5079760;28;20102;-65
2021/06/29 07:26:27;;;;;;;35.67;14.98;;;;;;;;;;5076581;28;20043;-65
2021/06/29 07:28:53;;;;;;;36.67;14.55;;;;;;;;;;5080110;28;20041;-65
2021/06/29 07:31:19;;;;;;;36.30;16.35;;;;;;;;;;5075901;28;20043;-64
2021/06/29 07:33:46;;;;;;;39.95;17.15;;;;;;;;;;5080228;28;20041;-64
2021/06/29 07:36:13;;;;;;;39.13;16.95;;;;;;;;;;5069807;28;20122;-64
2021/06/29 07:38:42;;;;;;;44.78;16.65;;;;;;;;;;5074792;28;20033;-64
2021/06/29 07:41:09;;;;;;;48.10;18.08;;;;;;;;;;5068549;28;20056;-64
2021/06/29 07:43:35;;;;;;;38.17;16.90;;;;;;;;;;5083398;28;20125;-65
2021/06/29 07:46:02;;;;;;;37.38;17.33;;;;;;;;;;5074998;28;20505;-64
2021/06/29 07:48:29;;;;;;;43.65;18.17;;;;;;;;;;5081920;28;20475;-65
2021/06/29 07:50:55;;;;;;;44.47;17.05;;;;;;;;;;5072129;28;20059;-65
2021/06/29 07:53:21;;;;;;;42.35;17.25;;;;;;;;;;5073897;28;20451;-65
2021/06/29 07:55:49;;;;;;;43.00;17.45;;;;;;;;;;5072378;28;20082;-62
2021/06/29 07:58:16;;;;;;;38.25;17.63;;;;;;;;;;5083382;28;20047;-62
2021/06/29 08:00:42;;;;;;;41.38;17.13;;;;;;;;;;5078525;28;20047;-62
2021/06/29 08:03:08;;;;;;;36.50;17.58;;;;;;;;;;5074785;28;20041;-62
2021/06/29 08:05:34;;;;;;;35.60;16.15;;;;;;;;;;5070052;28;20044;-62
2021/06/29 08:08:00;;;;;;;41.92;17.17;;;;;;;;;;5081222;28;20059;-62
2021/06/29 08:10:27;;;;;;;39.58;17.33;;;;;;;;;;5086267;28;20075;-62
2021/06/29 08:12:53;;;;;;;38.33;17.55;;;;;;;;;;5077646;28;20048;-62
2021/06/29 08:15:20;;;;;;;41.28;19.23;;;;;;;;;;5075924;28;20411;-65
2021/06/29 08:17:47;;;;;;;34.40;17.30;;;;;;;;;;5064554;28;20064;-65
2021/06/29 08:20:14;;;;;;;30.90;16.35;;;;;;;;;;5083207;28;20044;-65
2021/06/29 08:22:40;;;;;;;37.00;18.23;;;;;;;;;;5077746;28;20040;-65
2021/06/29 08:25:07;;;;;;;41.67;18.98;;;;;;;;;;5083749;28;20088;-65
2021/06/29 08:27:33;;;;;;;35.38;17.38;;;;;;;;;;5075204;28;20557;-65
2021/06/29 08:30:00;;;;;;;33.17;16.00;;;;;;;;;;5074661;28;20036;-65
2021/06/29 08:32:26;;;;;;;36.85;17.45;;;;;;;;;;5067662;28;20082;-65
2021/06/29 08:34:56;;;;;;;36.92;17.85;;;;;;;;;;5072337;28;20500;-65
2021/06/29 08:37:22;;;;;;;41.38;18.20;;;;;;;;;;5067650;28;20048;-65
2021/06/29 08:39:49;;;;;;;43.30;24.73;;;;;;;;;;5076778;28;20040;-64
2021/06/29 08:42:19;;;;;;;38.15;17.42;;;;;;;;;;5075002;28;20040;-65
2021/06/29 08:44:45;;;;;;;31.70;18.60;;;;;;;;;;5070517;28;20044;-65
2021/06/29 08:47:11;;;;;;;33.33;19.30;;;;;;;;;;5068826;28;20044;-65
2021/06/29 08:49:39;;;;;;;32.28;17.92;;;;;;;;;;5079336;28;20076;-65
2021/06/29 08:52:06;;;;;;;35.55;20.20;;;;;;;;;;5086101;28;20248;-65
2021/06/29 08:54:33;;;;;;;33.65;19.38;;;;;;;;;;5065391;28;20055;-65
2021/06/29 08:56:59;;;;;;;38.38;20.85;;;;;;;;;;5075002;28;20503;-65
2021/06/29 08:59:25;;;;;;;38.03;19.50;;;;;;;;;;5074808;28;20146;-65
2021/06/29 09:01:52;;;;;;;40.20;20.15;;;;;;;;;;5078082;28;20070;-65
2021/06/29 09:04:37;;;;;;;42.13;21.55;;;;;;;;;;5071314;28;20068;-65
2021/06/29 09:07:15;;;;;;;39.30;19.75;;;;;;;;;;5087737;28;20123;-65
2021/06/29 09:09:46;;;;;;;38.20;19.92;;;;;;;;;;5073962;28;20341;-65
2021/06/29 09:12:13;;;;;;;38.17;21.05;;;;;;;;;;5075986;28;20347;-65
2021/06/29 09:14:39;;;;;;;36.53;19.80;;;;;;;;;;5069116;28;20036;-65
2021/06/29 09:17:22;;;;;;;33.53;18.80;;;;;;;;;;5080197;28;20082;-65
2021/06/29 09:19:48;;;;;;;34.15;19.90;;;;;;;;;;5071467;28;20067;-65
2021/06/29 09:22:30;;;;;;;34.22;20.27;;;;;;;;;;5075935;28;20040;-65
2021/06/29 09:24:57;;;;;;;37.45;20.58;;;;;;;;;;5075541;28;20542;-62
2021/06/29 09:27:43;;;;;;;38.53;20.55;;;;;;;;;;5088337;28;20044;-62
2021/06/29 09:30:27;;;;;;;35.63;19.35;;;;;;;;;;5074294;28;20040;-62
2021/06/29 09:32:53;;;;;;;;;;;;;;;;;;5077467;28;20052;-62
2021/06/29 09:35:19;;;;;;;42.78;20.73;;;;;;;;;;5070664;28;20026;-63
2021/06/29 09:37:46;;;;;;;39.30;19.65;;;;;;;;;;5084610;28;20412;-63
2021/06/29 09:40:13;;;;;;;38.03;20.80;;;;;;;;;;5076821;28;20039;-63
2021/06/29 09:42:40;;;;;;;38.70;19.83;;;;;;;;;;5079418;28;20042;-62
2021/06/29 09:45:09;;;;;;;35.58;20.75;;;;;;;;;;5068866;28;20059;-63
2021/06/29 09:47:35;;;;;;;38.92;20.65;;;;;;;;;;5083871;28;20498;-62
2021/06/29 09:50:09;;;;;;;35.35;19.85;;;;;;;;;;5076821;28;20506;-62
2021/06/29 09:52:35;;;;;;;38.88;20.75;;;;;;;;;;5076580;28;20040;-62
2021/06/29 09:55:01;;;;;;;40.45;20.02;;;;;;;;;;5073000;28;20527;-62
2021/06/29 09:57:27;;;;;;;38.65;19.95;;;;;;;;;;5077573;28;20162;-62
2021/06/29 09:59:54;;;;;;;37.92;20.63;;;;;;;;;;5075960;28;20036;-62
2021/06/29 10:02:30;;;;;;;35.70;20.15;;;;;;;;;;5087231;28;20131;-62
2021/06/29 10:05:15;;;;;;;34.20;19.30;;;;;;;;;;5074588;28;20101;-62
2021/06/29 10:07:41;;;;;;;36.75;20.10;;;;;;;;;;5080590;28;20040;-62
2021/06/29 10:10:14;;;;;;;37.58;20.30;;;;;;;;;;5078062;28;20036;-62
2021/06/29 10:12:40;;;;;;;39.55;19.95;;;;;;;;;;5073556;28;20432;-62
2021/06/29 10:15:07;;;;;;;36.75;20.55;;;;;;;;;;5081681;28;20037;-62
2021/06/29 10:17:35;;;;;;;36.88;20.58;;;;;;;;;;5073032;28;20045;-62
2021/06/29 10:22:48;;;;;;;31.95;18.42;;;;;;;;;;5079207;28;20349;-62
2021/06/29 10:25:16;;;;;;;36.88;20.90;;;;;;;;;;5081928;28;20048;-62
2021/06/29 10:27:43;;;;;;;41.35;22.30;;;;;;;;;;5070546;28;20112;-62
2021/06/29 10:30:09;;;;;;;39.33;21.48;;;;;;;;;;5076874;28;20043;-62
2021/06/29 10:32:36;;;;;;;38.22;21.92;;;;;;;;;;5073618;28;20068;-62
2021/06/29 10:35:02;;;;;;;38.15;20.98;;;;;;;;;;5074642;28;20089;-62
2021/06/29 10:37:29;;;;;;;38.95;21.80;;;;;;;;;;5070101;28;20052;-62
2021/06/29 10:39:55;;;;;;;39.40;22.40;;;;;;;;;;5077491;28;20509;-62
2021/06/29 10:42:21;;;;;;;39.72;23.05;;;;;;;;;;5069141;28;20602;-62
2021/06/29 10:44:51;;;;;;;38.63;23.73;;;;;;;;;;5078627;28;20059;-62
2021/06/29 10:47:22;;;;;;;45.15;23.17;;;;;;;;;;5070841;28;20052;-62
2021/06/29 10:49:48;;;;;;;33.28;23.05;;;;;;;;;;5074802;28;20059;-62
2021/06/29 10:52:25;;;;;;;34.08;20.73;;;;;;;;;;5070043;28;20036;-63
2021/06/29 10:54:51;;;;;;;35.53;20.58;;;;;;;;;;5075999;28;20063;-63
2021/06/29 10:57:23;;;;;;;28.98;18.65;;;;;;;;;;5073608;28;20526;-63
2021/06/29 10:59:50;;;;;;;29.95;18.02;;;;;;;;;;5086745;28;20121;-63
2021/06/29 11:02:30;;;;;;;26.60;16.55;;;;;;;;;;5070275;28;20045;-63
2021/06/29 11:05:00;;;;;;;27.92;16.17;;;;;;;;;;5076116;28;20114;-63
2021/06/29 11:07:26;;;;;;;27.95;16.33;;;;;;;;;;5077080;28;20399;-63
2021/06/29 11:09:59;;;;;;;29.70;16.88;;;;;;;;;;5073033;28;20047;-63
2021/06/29 11:12:30;;;;;;;30.27;17.60;;;;;;;;;;5074001;28;20407;-63
2021/06/29 11:14:58;;;;;;;24.63;16.23;;;;;;;;;;5077193;28;20040;-63
2021/06/29 11:17:44;;;;;;;25.23;17.08;;;;;;;;;;5075377;28;20127;-63
2021/06/29 11:20:13;;;;;;;27.73;16.83;;;;;;;;;;5067937;28;20040;-63
2021/06/29 11:22:48;;;;;;;27.88;15.55;;;;;;;;;;5072025;28;20041;-63
2021/06/29 11:25:14;;;;;;;26.42;16.98;;;;;;;;;;5069300;28;20047;-63
2021/06/29 11:27:59;;;;;;;26.65;17.38;;;;;;;;;;5076077;28;20492;-63
2021/06/29 11:30:44;;;;;;;26.10;17.80;;;;;;;;;;5073709;28;20043;-63
2021/06/29 11:33:29;;;;;;;26.92;17.65;;;;;;;;;;5070585;28;20050;-63
2021/06/29 11:35:55;;;;;;;29.10;17.58;;;;;;;;;;5071991;28;20443;-63
2021/06/29 11:38:31;;;;;;;31.85;18.33;;;;;;;;;;5074209;28;20074;-63
2021/06/29 11:41:17;;;;;;;29.45;18.30;;;;;;;;;;5070383;28;20068;-63
2021/06/29 11:43:43;;;;;;;30.38;18.13;;;;;;;;;;5073556;28;20040;-63
2021/06/29 11:46:10;;;;;;;31.48;17.58;;;;;;;;;;5074364;28;20138;-63
2021/06/29 11:48:43;;;;;;;26.00;17.10;;;;;;;;;;5076348;28;20044;-63
2021/06/29 11:51:10;;;;;;;31.65;18.73;;;;;;;;;;5068522;28;20031;-63
2021/06/29 11:53:40;;;;;;;33.63;18.48;;;;;;;;;;5071580;28;20106;-63
2021/06/29 11:56:12;;;;;;;28.63;17.80;;;;;;;;;;5076503;28;20507;-63
2021/06/29 11:58:48;;;;;;;28.92;18.00;;;;;;;;;;5081797;28;20487;-63
2021/06/29 12:01:14;;;;;;;33.28;17.45;;;;;;;;;;5071134;28;20407;-63
2021/06/29 12:03:41;;;;;;;29.25;16.45;;;;;;;;;;5071787;28;20072;-63
2021/06/29 12:06:15;;;;;;;30.77;17.45;;;;;;;;;;5066570;28;20116;-63
2021/06/29 12:08:41;;;;;;;31.95;17.20;;;;;;;;;;5073752;28;20087;-63
2021/06/29 12:11:08;;;;;;;31.52;18.38;;;;;;;;;;5069875;28;20456;-63
2021/06/29 12:13:39;;;;;;;31.60;17.85;;;;;;;;;;5085191;28;20047;-63
2021/06/29 12:16:05;;;;;;;34.17;19.80;;;;;;;;;;5067997;28;20040;-63
2021/06/29 12:18:36;;;;;;;34.53;18.88;;;;;;;;;;5073307;28;20039;-63
2021/06/29 12:21:05;;;;;;;32.92;19.80;;;;;;;;;;5070792;28;20125;-63
2021/06/29 12:23:44;;;;;;;29.85;18.67;;;;;;;;;;5069782;28;20052;-63
2021/06/29 12:26:12;;;;;;;33.65;19.48;;;;;;;;;;5067483;28;20472;-63
2021/06/29 12:28:39;;;;;;;32.10;19.38;;;;;;;;;;5081167;28;20048;-63
2021/06/29 12:31:07;;;;;;;30.67;20.48;;;;;;;;;;5072261;28;20123;-63
2021/06/29 12:33:34;;;;;;;34.67;21.13;;;;;;;;;;5080631;28;20071;-63
2021/06/29 12:36:05;;;;;;;33.28;20.33;;;;;;;;;;5081262;28;20139;-61
2021/06/29 12:38:34;;;;;;;33.53;19.77;;;;;;;;;;5080492;28;20059;-61
2021/06/29 12:41:05;;;;;;;38.25;20.00;;;;;;;;;;5088062;28;20045;-61
2021/06/29 12:43:41;;;;;;;34.80;20.95;;;;;;;;;;5076264;28;20060;-63
2021/06/29 12:46:21;;;;;;;33.30;20.02;;;;;;;;;;5086676;28;20063;-62
2021/06/29 12:49:10;;;;;;;31.65;19.85;;;;;;;;;;5086252;28;20036;-62
2021/06/29 12:51:46;;;;;;;31.77;20.02;;;;;;;;;;5072118;28;20473;-62
2021/06/29 12:54:17;;;;;;;37.63;21.48;;;;;;;;;;5076979;28;20036;-62
2021/06/29 12:56:43;;;;;;;34.88;21.98;;;;;;;;;;5075179;28;20040;-62
2021/06/29 12:59:10;;;;;;;40.63;22.25;;;;;;;;;;5077505;28;20070;-64
2021/06/29 13:01:44;;;;;;;37.35;21.77;;;;;;;;;;5086290;28;20032;-64
2021/06/29 13:04:13;;;;;;;36.88;22.15;;;;;;;;;;5074110;28;20153;-64
2021/06/29 13:06:40;;;;;;;34.88;22.73;;;;;;;;;;5081244;28;20096;-64
2021/06/29 13:09:06;;;;;;;34.92;21.38;;;;;;;;;;5079684;28;20044;-63
2021/06/29 13:11:32;;;;;;;28.60;19.08;;;;;;;;;;5076517;28;20445;-63
2021/06/29 13:14:04;;;;;;;27.33;17.17;;;;;;;;;;5069682;28;20479;-64
2021/06/29 13:16:32;;;;;;;29.98;18.23;;;;;;;;;;5088296;28;20047;-63
2021/06/29 13:18:58;;;;;;;34.38;20.45;;;;;;;;;;5075944;28;20495;-64
2021/06/29 13:21:26;;;;;;;31.83;19.92;;;;;;;;;;5083125;28;20047;-63
2021/06/29 13:23:55;;;;;;;33.10;18.52;;;;;;;;;;5068193;28;20040;-63
2021/06/29 13:26:21;;;;;;;33.70;18.63;;;;;;;;;;5078452;28;20492;-63
2021/06/29 13:28:49;;;;;;;28.92;17.40;;;;;;;;;;5075105;28;20162;-63
2021/06/29 13:31:15;;;;;;;31.85;17.60;;;;;;;;;;5088689;28;20043;-64
2021/06/29 13:33:42;;;;;;;30.95;15.90;;;;;;;;;;5071908;28;20074;-63
2021/06/29 13:36:08;;;;;;;26.67;14.27;;;;;;;;;;5076997;28;20036;-64
2021/06/29 13:38:35;;;;;;;26.38;15.27;;;;;;;;;;5069777;28;20134;-64
2021/06/29 13:41:01;;;;;;;23.63;16.25;;;;;;;;;;5072830;28;20043;-64
2021/06/29 13:43:31;;;;;;;27.73;15.55;;;;;;;;;;5075535;28;20037;-63
2021/06/29 13:45:58;;;;;;;26.48;15.82;;;;;;;;;;5080558;28;20116;-63
2021/06/29 13:48:28;;;;;;;24.17;15.02;;;;;;;;;;5086285;28;20083;-63
2021/06/29 13:50:55;;;;;;;27.63;15.68;;;;;;;;;;5080103;28;20136;-63
2021/06/29 13:53:30;;;;;;;30.42;15.07;;;;;;;;;;5087034;28;20419;-64
2021/06/29 13:55:59;;;;;;;29.92;16.55;;;;;;;;;;5078277;28;20047;-63
2021/06/29 13:58:27;;;;;;;25.80;15.75;;;;;;;;;;5083218;28;20566;-63
2021/06/29 14:00:54;;;;;;;24.27;14.82;;;;;;;;;;5082014;28;20484;-63
2021/06/29 14:03:24;;;;;;;27.95;16.95;;;;;;;;;;5086927;28;20036;-63
2021/06/29 14:05:51;;;;;;;24.67;16.83;;;;;;;;;;5078354;28;20040;-63
2021/06/29 14:08:17;;;;;;;28.73;17.73;;;;;;;;;;5076678;28;20048;-64
2021/06/29 14:10:45;;;;;;;32.78;19.30;;;;;;;;;;5078868;28;20254;-63
2021/06/29 14:13:12;;;;;;;35.00;19.17;;;;;;;;;;5083147;28;20432;-64
2021/06/29 14:15:38;;;;;;;30.67;17.50;;;;;;;;;;5070500;28;20044;-63
2021/06/29 14:18:05;;;;;;;30.75;18.70;;;;;;;;;;5074455;28;20464;-64
2021/06/29 14:20:32;;;;;;;30.75;19.00;;;;;;;;;;5076486;28;20131;-63
2021/06/29 14:22:58;;;;;;;34.10;19.05;;;;;;;;;;5079722;28;20048;-64
2021/06/29 14:25:25;;;;;;;32.45;19.20;;;;;;;;;;5069112;28;20070;-64
2021/06/29 14:27:53;;;;;;;35.67;19.45;;;;;;;;;;5076332;28;20055;-64
2021/06/29 14:30:20;;;;;;;32.83;18.45;;;;;;;;;;5073285;28;20094;-63